Time;durP1;ratioP1;P1;durP2;ratioP2;P2;SDS_P1;SDS_P2;PMS_P1;PMS_P2;Temp;Humidity;BMP_temperature;BMP_pressure;BME280_temperature;BME280_humidity;BME280_pressure;Samples;Min_cycle;Max_cycle;Signal;HPM_P1;HPM_P2
2022/10/05 00:01:31;;;;;;;13.68;6.60;;;15.20;99.90;;;;;;4999618;28;20541;-74
2022/10/05 00:04:19;;;;;;;18.48;6.53;;;15.30;99.90;;;;;;4998966;28;20039;-75
2022/10/05 00:06:58;;;;;;;19.58;7.32;;;15.20;99.90;;;;;;4999309;28;20108;-75
2022/10/05 00:09:23;;;;;;;14.63;6.75;;;15.20;99.90;;;;;;5014847;28;20129;-75
2022/10/05 00:11:50;;;;;;;14.07;6.57;;;15.20;99.90;;;;;;5014741;28;20130;-74
2022/10/05 00:14:19;;;;;;;11.63;6.40;;;15.20;99.90;;;;;;5014863;28;20050;-74
2022/10/05 00:16:45;;;;;;;15.35;6.57;;;15.20;99.90;;;;;;4998362;28;20054;-75
2022/10/05 00:19:20;;;;;;;14.30;6.53;;;15.20;99.90;;;;;;4998772;28;20069;-76
2022/10/05 00:21:45;;;;;;;14.65;6.03;;;15.20;99.90;;;;;;4999162;28;20100;-75
2022/10/05 00:24:14;;;;;;;16.13;6.45;;;15.20;99.90;;;;;;4999554;28;20081;-76
2022/10/05 00:26:40;;;;;;;16.27;6.35;;;15.20;99.90;;;;;;4999445;28;20046;-74
2022/10/05 00:29:26;;;;;;;14.55;5.93;;;15.10;99.90;;;;;;4998990;28;20050;-74
2022/10/05 00:31:52;;;;;;;13.50;6.28;;;15.20;99.90;;;;;;4998862;28;20057;-75
2022/10/05 00:34:17;;;;;;;11.77;5.68;;;15.20;99.90;;;;;;5002246;28;20046;-76
2022/10/05 00:36:44;;;;;;;16.10;7.22;;;15.20;99.90;;;;;;4999873;28;20046;-75
2022/10/05 00:39:10;;;;;;;15.52;6.43;;;15.20;99.90;;;;;;5000168;28;20453;-76
2022/10/05 00:41:59;;;;;;;13.75;7.05;;;15.10;99.90;;;;;;5000002;28;20066;-75
2022/10/05 00:44:38;;;;;;;15.15;6.28;;;15.20;99.90;;;;;;5013696;28;20058;-77
2022/10/05 00:47:17;;;;;;;20.48;6.75;;;15.10;99.90;;;;;;4983914;28;20050;-75
2022/10/05 00:50:01;;;;;;;15.10;6.90;;;15.10;99.90;;;;;;5001451;28;20505;-76
2022/10/05 00:52:45;;;;;;;14.65;6.57;;;15.10;99.90;;;;;;5016048;28;20112;-77
2022/10/05 00:55:11;;;;;;;14.35;6.78;;;15.20;99.90;;;;;;5000550;28;20177;-75
2022/10/05 00:57:53;;;;;;;13.57;7.47;;;15.10;99.90;;;;;;5000397;28;20403;-76
2022/10/05 01:00:24;;;;;;;16.23;7.57;;;15.20;99.90;;;;;;5000960;28;20039;-76
2022/10/05 01:03:08;;;;;;;18.65;7.90;;;15.20;99.90;;;;;;5001116;28;20042;-75
2022/10/05 01:05:43;;;;;;;16.30;7.53;;;15.20;99.90;;;;;;5000814;28;20136;-74
2022/10/05 01:08:42;;;;;;;15.70;7.93;;;15.10;99.90;;;;;;4998852;28;20368;-75
2022/10/05 01:11:36;;;;;;;17.92;8.48;;;15.10;99.90;;;;;;4995717;28;20072;-75
2022/10/05 01:14:26;;;;;;;19.38;7.90;;;15.10;99.90;;;;;;4996173;28;20129;-75
2022/10/05 01:17:21;;;;;;;15.93;7.78;;;15.10;99.90;;;;;;4996718;28;20042;-77
2022/10/05 01:20:19;;;;;;;21.23;8.20;;;15.10;99.90;;;;;;4998536;28;20458;-74
2022/10/05 01:23:03;;;;;;;22.10;8.45;;;15.10;99.90;;;;;;4974884;28;20101;-74
2022/10/05 01:25:54;;;;;;;17.52;7.97;;;15.00;99.90;;;;;;5003810;28;20049;-77
2022/10/05 01:28:58;;;;;;;20.58;8.52;;;15.10;99.90;;;;;;5001485;28;20097;-78
2022/10/05 01:31:55;;;;;;;20.42;8.60;;;15.10;99.90;;;;;;5000816;28;20053;-79
2022/10/05 01:34:42;;;;;;;21.20;9.00;;;15.00;99.90;;;;;;5000227;28;20499;-76
2022/10/05 01:37:15;;;;;;;21.65;9.18;;;15.00;99.90;;;;;;5012194;28;20380;-76
2022/10/05 01:39:43;;;;;;;21.98;9.00;;;15.00;99.90;;;;;;4998239;28;20042;-76
2022/10/05 01:42:20;;;;;;;21.52;9.00;;;14.90;99.90;;;;;;4994224;28;20057;-74
2022/10/05 01:45:05;;;;;;;18.40;8.85;;;13.40;99.90;;;;;;4996127;28;20074;-76
2022/10/05 01:48:07;;;;;;;19.55;8.73;;;15.00;99.90;;;;;;5011316;28;20222;-78
2022/10/05 01:50:54;;;;;;;22.13;8.30;;;15.00;99.90;;;;;;4986898;28;20132;-75
2022/10/05 01:53:38;;;;;;;20.10;8.63;;;14.90;99.90;;;;;;5010398;28;20479;-75
2022/10/05 01:56:42;;;;;;;24.00;8.73;;;14.90;99.90;;;;;;4995401;28;20050;-74
2022/10/05 01:59:29;;;;;;;22.58;8.77;;;14.90;99.90;;;;;;4995643;28;20096;-76
2022/10/05 02:02:06;;;;;;;22.77;8.68;;;14.80;99.90;;;;;;5010467;28;20104;-75
2022/10/05 02:04:38;;;;;;;18.50;8.40;;;14.90;99.90;;;;;;4995725;28;20057;-77
2022/10/05 02:07:42;;;;;;;19.17;8.57;;;14.90;99.90;;;;;;4995764;28;20042;-75
2022/10/05 02:10:17;;;;;;;18.98;8.50;;;14.90;99.90;;;;;;4973988;28;20038;-73
2022/10/05 02:12:44;;;;;;;20.58;8.40;;;14.80;99.90;;;;;;4992332;28;20054;-74
2022/10/05 02:15:21;;;;;;;18.55;8.80;;;14.80;99.90;;;;;;5002171;28;20046;-74
2022/10/05 02:17:58;;;;;;;17.75;8.25;;;14.80;99.90;;;;;;5010111;28;20073;-76
2022/10/05 02:20:30;;;;;;;19.05;8.38;;;14.70;99.90;;;;;;5004427;28;20074;-77
2022/10/05 02:23:02;;;;;;;16.85;8.25;;;14.70;99.90;;;;;;4996110;28;20057;-76
2022/10/05 02:25:33;;;;;;;19.80;7.75;;;14.70;99.90;;;;;;4996089;28;20062;-75
2022/10/05 02:28:17;;;;;;;17.98;8.30;;;14.70;99.90;;;;;;4997388;28;20119;-78
2022/10/05 02:30:50;;;;;;;16.08;7.65;;;14.80;99.90;;;;;;4995931;28;20054;-76
2022/10/05 02:33:29;;;;;;;17.20;8.07;;;14.70;99.90;;;;;;4995361;28;20132;-76
2022/10/05 02:36:10;;;;;;;21.00;8.45;;;14.70;99.90;;;;;;4978920;28;20074;-75
2022/10/05 02:38:58;;;;;;;18.52;8.30;;;14.70;99.90;;;;;;4996558;28;20387;-82
2022/10/05 02:42:01;;;;;;;15.15;8.02;;;14.70;99.90;;;;;;4994673;28;20493;-75
2022/10/05 02:44:59;;;;;;;20.35;8.05;;;14.70;99.90;;;;;;4995333;28;20177;-73
2022/10/05 02:47:48;;;;;;;20.20;7.63;;;14.60;99.90;;;;;;4996988;28;20057;-74
2022/10/05 02:50:36;;;;;;;16.23;6.78;;;14.60;99.90;;;;;;4998246;28;20054;-76
2022/10/05 02:53:20;;;;;;;20.05;7.65;;;14.70;99.90;;;;;;4997235;28;20050;-77
2022/10/05 02:55:54;;;;;;;19.83;8.15;;;14.70;99.90;;;;;;4995569;28;20133;-75
2022/10/05 02:58:28;;;;;;;20.95;7.85;;;14.70;99.90;;;;;;4994421;28;20054;-76
2022/10/05 03:01:35;;;;;;;14.25;6.72;;;14.70;99.90;;;;;;4995633;28;20050;-77
2022/10/05 03:04:27;;;;;;;17.95;7.38;;;14.80;99.90;;;;;;4959780;28;20065;-73
2022/10/05 03:07:13;;;;;;;18.75;7.82;;;14.70;99.90;;;;;;4994877;28;20046;-76
2022/10/05 03:10:03;;;;;;;18.33;7.82;;;14.70;99.90;;;;;;4994966;28;20108;-75
2022/10/05 03:12:40;;;;;;;17.98;7.28;;;14.60;99.90;;;;;;4993841;28;20137;-76
2022/10/05 03:15:21;;;;;;;18.33;7.90;;;14.60;99.90;;;;;;5009762;28;20177;-75
2022/10/05 03:17:59;;;;;;;16.92;7.78;;;14.50;99.90;;;;;;4994326;28;20459;-74
2022/10/05 03:20:40;;;;;;;19.33;8.02;;;14.50;99.90;;;;;;4993401;28;20050;-72
2022/10/05 03:23:13;;;;;;;16.63;7.88;;;14.50;99.90;;;;;;4993327;28;20067;-75
2022/10/05 03:26:05;;;;;;;14.85;7.30;;;14.50;99.90;;;;;;4993505;28;20054;-79
2022/10/05 03:28:48;;;;;;;21.23;8.73;;;14.50;99.90;;;;;;4993357;28;20094;-75
2022/10/05 03:31:33;;;;;;;19.08;7.88;;;14.50;99.90;;;;;;4993327;28;20042;-74
2022/10/05 03:34:06;;;;;;;17.40;7.70;;;14.50;99.90;;;;;;4992090;28;20374;-74
2022/10/05 03:36:50;;;;;;;21.08;8.48;;;14.40;99.90;;;;;;4994957;28;20089;-76
2022/10/05 03:39:37;;;;;;;22.38;8.25;;;14.40;99.90;;;;;;4995483;28;20042;-75
2022/10/05 03:42:09;;;;;;;15.57;8.23;;;14.40;99.90;;;;;;4993069;28;20057;-74
2022/10/05 03:45:04;;;;;;;17.83;8.68;;;14.40;99.90;;;;;;4993684;28;20046;-75
2022/10/05 03:47:45;;;;;;;17.33;8.27;;;14.50;99.90;;;;;;5009813;28;20348;-76
2022/10/05 03:50:21;;;;;;;19.23;8.27;;;14.50;99.90;;;;;;4993316;28;20238;-76
2022/10/05 03:53:10;;;;;;;20.35;8.43;;;14.50;99.90;;;;;;4993106;28;20590;-76
2022/10/05 03:55:46;;;;;;;21.08;9.05;;;14.50;99.90;;;;;;4993767;28;20401;-76
2022/10/05 03:58:41;;;;;;;17.15;8.77;;;14.30;99.90;;;;;;4994050;28;20061;-76
2022/10/05 04:01:13;;;;;;;19.67;8.43;;;14.60;99.90;;;;;;5004742;28;20055;-75
2022/10/05 04:03:52;;;;;;;19.58;9.00;;;14.60;99.90;;;;;;4993588;28;20079;-78
2022/10/05 04:06:31;;;;;;;19.60;9.15;;;14.40;99.90;;;;;;4993964;28;20367;-76
2022/10/05 04:09:07;;;;;;;20.17;9.52;;;14.40;99.90;;;;;;4992741;28;20466;-76
2022/10/05 04:12:06;;;;;;;21.52;9.88;;;14.40;99.90;;;;;;4976464;28;20447;-76
2022/10/05 04:14:37;;;;;;;19.30;8.55;;;14.40;99.90;;;;;;4990206;28;20117;-76
2022/10/05 04:17:16;;;;;;;20.45;9.57;;;14.40;99.90;;;;;;5008994;28;20058;-75
2022/10/05 04:19:43;;;;;;;23.08;9.05;;;14.40;99.90;;;;;;4993892;28;20093;-82
2022/10/05 04:22:14;;;;;;;19.00;8.47;;;14.40;99.90;;;;;;4992311;28;20054;-75
2022/10/05 04:24:55;;;;;;;19.90;9.23;;;14.30;99.90;;;;;;5008205;28;20298;-76
2022/10/05 04:27:38;;;;;;;25.50;9.65;;;14.30;99.90;;;;;;4992921;28;20047;-78
2022/10/05 04:30:11;;;;;;;24.38;10.13;;;14.20;99.90;;;;;;4994764;28;20050;-76
2022/10/05 04:32:51;;;;;;;21.55;10.27;;;14.20;99.90;;;;;;4992764;28;20051;-75
2022/10/05 04:35:48;;;;;;;24.10;10.38;;;14.20;99.90;;;;;;4994298;28;20046;-76
2022/10/05 04:38:42;;;;;;;22.70;10.05;;;14.10;99.90;;;;;;4993863;28;20042;-76
2022/10/05 04:41:15;;;;;;;21.55;10.10;;;14.10;99.90;;;;;;4994777;28;20038;-76
2022/10/05 04:44:14;;;;;;;22.63;10.30;;;14.10;99.90;;;;;;4993851;28;20050;-73
2022/10/05 04:47:05;;;;;;;25.08;10.98;;;14.00;99.90;;;;;;4995590;28;20049;-75
2022/10/05 04:50:06;;;;;;;22.13;10.32;;;14.00;99.90;;;;;;4997177;28;20133;-75
2022/10/05 04:52:34;;;;;;;23.40;10.23;;;14.00;99.90;;;;;;4993951;28;20054;-75
2022/10/05 04:55:11;;;;;;;21.63;10.20;;;14.00;99.90;;;;;;4995652;28;20118;-75
2022/10/05 04:58:20;;;;;;;27.15;10.98;;;14.00;99.90;;;;;;4997043;28;20049;-74
2022/10/05 05:01:15;;;;;;;26.95;11.20;;;13.90;99.90;;;;;;4996382;28;20069;-78
2022/10/05 05:04:15;;;;;;;26.63;11.57;;;14.00;99.90;;;;;;4995406;28;20179;-76
2022/10/05 05:07:02;;;;;;;26.95;11.90;;;14.00;99.90;;;;;;4995313;28;20054;-75
2022/10/05 05:09:40;;;;;;;24.42;10.40;;;14.00;99.90;;;;;;4997157;28;20054;-75
2022/10/05 05:12:42;;;;;;;21.88;10.82;;;14.00;99.90;;;;;;5001978;28;20044;-76
2022/10/05 05:15:11;;;;;;;26.75;11.05;;;14.10;99.90;;;;;;5009746;28;20047;-75
2022/10/05 05:17:40;;;;;;;25.05;11.88;;;14.00;99.90;;;;;;5012909;28;20050;-76
2022/10/05 05:20:17;;;;;;;25.92;12.43;;;14.10;99.90;;;;;;5002969;28;20102;-73
2022/10/05 05:22:46;;;;;;;27.08;11.55;;;14.10;99.90;;;;;;4997608;28;20050;-75
2022/10/05 05:25:32;;;;;;;24.92;10.85;;;14.10;99.90;;;;;;4996017;28;20061;-77
2022/10/05 05:28:30;;;;;;;27.88;11.55;;;14.10;99.90;;;;;;4997712;28;20050;-74
2022/10/05 05:31:19;;;;;;;27.13;12.07;;;14.10;99.90;;;;;;4996161;28;20078;-74
2022/10/05 05:34:27;;;;;;;27.10;11.77;;;14.10;99.90;;;;;;4995419;28;20446;-74
2022/10/05 05:37:25;;;;;;;25.98;11.45;;;14.00;99.90;;;;;;4979050;28;20054;-75
2022/10/05 05:40:19;;;;;;;26.27;10.68;;;14.00;99.90;;;;;;4979350;28;20475;-77
2022/10/05 05:43:15;;;;;;;25.15;12.23;;;14.00;99.90;;;;;;4979698;28;20503;-76
2022/10/05 05:45:45;;;;;;;25.63;11.43;;;14.00;99.90;;;;;;4982667;28;20090;-74
2022/10/05 05:48:26;;;;;;;27.08;11.90;;;14.00;99.90;;;;;;4995127;28;22312;-75
2022/10/05 05:51:10;;;;;;;27.30;11.80;;;14.00;99.90;;;;;;4995571;28;20124;-80
2022/10/05 05:53:48;;;;;;;28.52;11.93;;;14.00;99.90;;;;;;4995523;28;20113;-78
2022/10/05 05:56:19;;;;;;;23.83;11.70;;;14.10;99.90;;;;;;4997310;28;20114;-76
2022/10/05 05:58:47;;;;;;;28.77;12.93;;;14.10;99.90;;;;;;4995455;28;20054;-75
2022/10/05 06:01:38;;;;;;;28.05;11.48;;;14.10;99.90;;;;;;4995196;28;20125;-73
2022/10/05 06:04:18;;;;;;;26.52;11.40;;;14.10;99.90;;;;;;4994823;28;20421;-73
2022/10/05 06:06:48;;;;;;;32.53;13.65;;;14.10;99.90;;;;;;4993926;28;20188;-74
2022/10/05 06:09:23;;;;;;;28.35;12.82;;;14.20;99.90;;;;;;4995481;28;20081;-75
2022/10/05 06:11:57;;;;;;;23.17;11.88;;;14.10;99.90;;;;;;4978457;28;20050;-74
2022/10/05 06:14:42;;;;;;;27.27;12.65;;;14.20;99.90;;;;;;4994101;28;20052;-75
2022/10/05 06:17:22;;;;;;;26.90;12.15;;;14.10;99.90;;;;;;4995604;28;20050;-75
2022/10/05 06:19:51;;;;;;;24.15;11.65;;;14.10;99.90;;;;;;4993788;28;20059;-72
2022/10/05 06:22:34;;;;;;;29.95;12.48;;;14.20;99.90;;;;;;4995196;28;20049;-74
2022/10/05 06:25:26;;;;;;;22.00;11.07;;;14.20;99.90;;;;;;4993572;28;20054;-74
2022/10/05 06:28:07;;;;;;;27.65;12.48;;;14.20;99.90;;;;;;4994171;28;20449;-74
2022/10/05 06:30:58;;;;;;;21.20;12.05;;;14.30;99.90;;;;;;4993626;28;20085;-75
2022/10/05 06:33:47;;;;;;;27.13;11.70;;;14.20;99.90;;;;;;4994851;28;20086;-73
2022/10/05 06:36:34;;;;;;;25.58;11.55;;;14.30;99.90;;;;;;4995318;28;20079;-76
2022/10/05 06:39:28;;;;;;;24.38;11.60;;;14.30;99.90;;;;;;4995127;28;20049;-74
2022/10/05 06:42:09;;;;;;;26.35;12.23;;;14.30;99.90;;;;;;4995899;28;20046;-77
2022/10/05 06:44:58;;;;;;;23.75;11.57;;;14.40;99.90;;;;;;4995270;28;20086;-73
2022/10/05 06:47:51;;;;;;;24.90;12.20;;;14.40;99.90;;;;;;4977682;28;20055;-74
2022/10/05 06:50:28;;;;;;;28.67;12.35;;;14.40;99.90;;;;;;4993216;28;20089;-75
2022/10/05 06:53:10;;;;;;;22.58;11.30;;;14.40;99.90;;;;;;4994890;28;20094;-74
2022/10/05 06:55:50;;;;;;;26.10;12.80;;;14.50;99.90;;;;;;4995602;28;20062;-75
2022/10/05 06:58:39;;;;;;;24.48;11.73;;;14.50;99.90;;;;;;4996859;28;20604;-74
2022/10/05 07:01:41;;;;;;;20.45;10.85;;;14.50;99.90;;;;;;4994707;28;20065;-73
2022/10/05 07:04:25;;;;;;;24.30;11.45;;;14.50;99.90;;;;;;4995232;28;20477;-74
2022/10/05 07:07:02;;;;;;;21.23;10.77;;;14.60;99.90;;;;;;4994856;28;20046;-76
2022/10/05 07:09:53;;;;;;;20.33;10.27;;;14.70;99.90;;;;;;4993933;28;20049;-75
2022/10/05 07:12:37;;;;;;;23.52;10.00;;;14.70;99.90;;;;;;4994112;28;20042;-72
2022/10/05 07:15:24;;;;;;;24.85;10.40;;;14.70;99.90;;;;;;4993914;28;20042;-74
2022/10/05 07:18:04;;;;;;;20.65;9.70;;;14.70;99.90;;;;;;4993528;28;20061;-73
2022/10/05 07:20:38;;;;;;;21.52;11.02;;;14.70;99.90;;;;;;4996551;28;20054;-75
2022/10/05 07:23:28;;;;;;;19.33;10.23;;;14.80;99.90;;;;;;4996275;28;20471;-73
2022/10/05 07:26:08;;;;;;;19.30;9.52;;;14.80;99.90;;;;;;4994166;28;20434;-74
2022/10/05 07:28:45;;;;;;;18.85;9.82;;;14.90;99.90;;;;;;4994137;28;20042;-74
2022/10/05 07:31:25;;;;;;;19.75;9.68;;;14.90;99.90;;;;;;4977819;28;20049;-74
2022/10/05 07:34:12;;;;;;;19.33;10.23;;;15.10;99.90;;;;;;4994519;28;20054;-75
2022/10/05 07:40:02;;;;;;;18.65;10.10;;;15.20;99.90;;;;;;4993627;28;20065;-76
2022/10/05 07:42:40;;;;;;;19.65;10.55;;;15.20;99.90;;;;;;4992660;28;20089;-74
2022/10/05 07:45:38;;;;;;;18.80;9.10;;;15.20;99.90;;;;;;4992832;28;20054;-76
2022/10/05 07:48:13;;;;;;;18.98;10.18;;;15.30;99.90;;;;;;4993441;28;20070;-76
2022/10/05 07:50:46;;;;;;;20.70;9.90;;;15.30;99.90;;;;;;4993284;28;20062;-76
2022/10/05 07:53:23;;;;;;;24.10;9.95;;;15.30;99.90;;;;;;4992507;28;20486;-75
2022/10/05 07:56:01;;;;;;;19.80;10.15;;;15.30;99.90;;;;;;4993202;28;20098;-75
2022/10/05 07:58:38;;;;;;;16.30;9.40;;;15.30;99.90;;;;;;4993062;28;20050;-75
2022/10/05 08:01:23;;;;;;;17.50;9.35;;;15.40;99.90;;;;;;4992479;28;20097;-79
2022/10/05 08:04:02;;;;;;;16.10;9.30;;;15.40;99.90;;;;;;5008935;28;20534;-72
2022/10/05 08:06:40;;;;;;;20.38;9.10;;;15.40;99.90;;;;;;4993760;28;20062;-76
2022/10/05 08:09:32;;;;;;;19.23;8.85;;;15.50;99.90;;;;;;4993214;28;20136;-75
2022/10/05 08:12:21;;;;;;;14.95;8.40;;;15.50;99.90;;;;;;4993482;28;20058;-73
2022/10/05 08:14:55;;;;;;;19.17;9.25;;;15.60;99.90;;;;;;5000097;28;20144;-75
2022/10/05 08:17:27;;;;;;;18.83;8.70;;;15.60;99.90;;;;;;5007326;28;20104;-75
2022/10/05 08:20:33;;;;;;;17.48;8.80;;;15.60;99.90;;;;;;5000245;28;20077;-76
2022/10/05 08:23:19;;;;;;;18.50;8.98;;;15.70;99.90;;;;;;4998127;28;20058;-77
2022/10/05 08:26:08;;;;;;;16.77;9.30;;;15.70;99.90;;;;;;4997518;28;20042;-75
2022/10/05 08:28:45;;;;;;;17.02;8.57;;;15.70;99.90;;;;;;4995875;28;20052;-78
2022/10/05 08:31:36;;;;;;;16.25;8.57;;;15.80;99.90;;;;;;4996851;28;20494;-80
2022/10/05 08:34:03;;;;;;;16.58;7.68;;;16.20;99.90;;;;;;4993751;28;20149;-73
2022/10/05 08:37:14;;;;;;;16.88;9.07;;;16.00;99.90;;;;;;4997171;28;20049;-73
2022/10/05 08:39:53;;;;;;;14.48;7.60;;;16.00;99.90;;;;;;5012661;28;20050;-76
2022/10/05 08:42:39;;;;;;;15.70;7.57;;;16.10;99.90;;;;;;4980544;28;20060;-75
2022/10/05 08:45:15;;;;;;;15.95;6.07;;;16.30;99.90;;;;;;4995796;28;20047;-76
2022/10/05 08:48:00;;;;;;;14.82;6.75;;;;;;;;;;5012342;28;20073;-77
2022/10/05 08:50:59;;;;;;;15.00;7.07;;;16.20;99.90;;;;;;5011851;28;20058;-74
2022/10/05 08:53:53;;;;;;;11.75;7.03;;;16.30;99.90;;;;;;4998015;28;20502;-73
2022/10/05 08:56:59;;;;;;;13.32;7.38;;;16.30;99.90;;;;;;4998867;28;20069;-73
2022/10/05 08:59:28;;;;;;;10.77;6.07;;;16.30;99.90;;;;;;5006505;28;20057;-74
2022/10/05 09:02:15;;;;;;;13.13;6.57;;;16.40;99.90;;;;;;5011135;28;20046;-75
2022/10/05 09:05:00;;;;;;;10.80;6.05;;;16.40;99.90;;;;;;5027537;28;20130;-76
2022/10/05 09:07:41;;;;;;;8.35;5.57;;;16.50;99.90;;;;;;5008417;28;20160;-76
2022/10/05 09:10:19;;;;;;;9.77;5.68;;;16.60;99.90;;;;;;5007103;28;20105;-75
2022/10/05 09:13:05;;;;;;;9.48;6.03;;;16.70;99.90;;;;;;5004683;28;20058;-75
2022/10/05 09:16:06;;;;;;;9.23;5.85;;;16.70;99.90;;;;;;5001883;28;20181;-73
2022/10/05 09:19:01;;;;;;;12.65;5.80;;;16.70;99.90;;;;;;5005188;28;20414;-74
2022/10/05 09:21:41;;;;;;;13.02;6.20;;;16.70;99.90;;;;;;5006854;28;20058;-74
2022/10/05 09:24:22;;;;;;;12.77;6.72;;;16.70;99.90;;;;;;5003447;28;20046;-75
2022/10/05 09:27:10;;;;;;;12.65;6.72;;;16.60;99.90;;;;;;4999687;28;20423;-74
2022/10/05 09:29:58;;;;;;;11.93;6.72;;;16.60;99.90;;;;;;5002300;28;20050;-74
2022/10/05 09:32:44;;;;;;;13.60;6.55;;;16.70;99.90;;;;;;5000631;28;20038;-74
2022/10/05 09:35:29;;;;;;;;;;;16.70;99.90;;;;;;4999720;28;20441;-78
2022/10/05 09:38:13;;;;;;;13.52;6.88;;;16.70;99.90;;;;;;5007277;28;19918;-76
2022/10/05 09:41:16;;;;;;;11.85;6.50;;;16.60;99.90;;;;;;4996487;28;20050;-76
2022/10/05 09:44:19;;;;;;;13.20;6.57;;;16.70;99.90;;;;;;5003139;28;20042;-74
2022/10/05 09:47:12;;;;;;;11.07;5.03;;;16.80;99.90;;;;;;5003535;28;20045;-76
2022/10/05 09:49:53;;;;;;;13.68;6.40;;;16.90;99.90;;;;;;5020513;28;20065;-76
2022/10/05 09:52:36;;;;;;;14.55;6.82;;;16.70;99.90;;;;;;5014232;28;20224;-74
2022/10/05 09:55:29;;;;;;;11.40;6.22;;;16.80;99.90;;;;;;5003448;28;20154;-77
2022/10/05 09:58:15;;;;;;;14.50;6.93;;;16.80;99.90;;;;;;4985320;28;20112;-74
2022/10/05 10:01:08;;;;;;;12.15;6.53;;;16.80;99.90;;;;;;5002733;28;20058;-76
2022/10/05 10:03:58;;;;;;;10.77;5.88;;;16.80;99.90;;;;;;5005747;28;20042;-75
2022/10/05 10:06:53;;;;;;;13.93;6.57;;;16.90;99.90;;;;;;5004035;28;20046;-75
2022/10/05 10:09:40;;;;;;;13.00;6.88;;;16.90;99.90;;;;;;4967164;28;20117;-76
2022/10/05 10:12:21;;;;;;;9.82;6.00;;;17.00;99.90;;;;;;5003800;28;20050;-75
2022/10/05 10:15:27;;;;;;;12.15;6.18;;;17.00;99.90;;;;;;4998299;28;20053;-73
2022/10/05 10:18:24;;;;;;;11.63;6.57;;;17.10;99.90;;;;;;5012219;28;20431;-76
2022/10/05 10:21:41;;;;;;;10.23;5.53;;;17.00;99.90;;;;;;4996286;28;20046;-78
2022/10/05 10:24:38;;;;;;;12.90;6.32;;;17.00;99.90;;;;;;4987003;28;20114;-77
2022/10/05 10:27:22;;;;;;;9.50;5.93;;;17.10;99.90;;;;;;5010739;28;20097;-76
2022/10/05 10:30:06;;;;;;;9.50;5.63;;;17.20;99.90;;;;;;4996126;28;20049;-75
2022/10/05 10:33:14;;;;;;;14.93;5.53;;;17.20;99.90;;;;;;5010826;28;20042;-75
2022/10/05 10:36:02;;;;;;;10.27;5.53;;;17.30;99.90;;;;;;4992538;28;20397;-75
2022/10/05 10:38:49;;;;;;;9.15;5.70;;;17.20;99.90;;;;;;5010676;28;20058;-74
2022/10/05 10:41:49;;;;;;;9.32;6.03;;;17.40;99.90;;;;;;4995044;28;20049;-76
2022/10/05 10:44:46;;;;;;;9.80;5.75;;;17.40;99.90;;;;;;4995504;28;20046;-77
2022/10/05 10:47:35;;;;;;;10.50;5.35;;;17.30;99.90;;;;;;4995277;28;20046;-74
2022/10/05 10:50:07;;;;;;;9.57;4.88;;;17.30;99.90;;;;;;4995901;28;20062;-79
2022/10/05 10:52:52;;;;;;;8.05;5.00;;;17.50;99.90;;;;;;5011080;28;20050;-77
2022/10/05 10:55:36;;;;;;;7.10;3.72;;;17.50;99.90;;;;;;4996532;28;20103;-76
2022/10/05 10:58:21;;;;;;;8.30;3.92;;;17.60;99.90;;;;;;4996137;28;20042;-74
2022/10/05 11:00:57;;;;;;;11.10;3.80;;;17.60;99.90;;;;;;5011449;28;20541;-76
2022/10/05 11:03:48;;;;;;;10.32;3.53;;;17.60;99.90;;;;;;4999734;28;20128;-77
2022/10/05 11:06:34;;;;;;;9.00;3.75;;;17.70;99.90;;;;;;4998672;28;20046;-74
2022/10/05 11:09:08;;;;;;;;;;;17.70;99.90;;;;;;4997966;28;20046;-76
2022/10/05 11:11:36;;;;;;;7.53;4.22;;;17.80;99.90;;;;;;4996181;28;19988;-76
2022/10/05 11:14:28;;;;;;;8.05;4.25;;;17.60;99.90;;;;;;4998292;28;20097;-77
2022/10/05 11:17:30;;;;;;;8.32;4.30;;;17.90;99.90;;;;;;4987351;28;20054;-73
2022/10/05 11:19:56;;;;;;;9.38;4.32;;;17.80;99.90;;;;;;4997961;28;20407;-76
2022/10/05 11:22:43;;;;;;;7.95;4.43;;;18.00;99.90;;;;;;5011474;28;20049;-78
2022/10/05 11:25:43;;;;;;;6.85;4.13;;;18.00;99.90;;;;;;4994984;28;20042;-76
2022/10/05 11:28:30;;;;;;;7.38;4.47;;;18.10;99.90;;;;;;5010724;28;20164;-75
2022/10/05 11:31:28;;;;;;;9.25;4.38;;;18.10;99.90;;;;;;5009563;28;20054;-75
2022/10/05 11:34:20;;;;;;;8.32;4.43;;;18.10;99.90;;;;;;4993975;28;20042;-76
2022/10/05 11:36:55;;;;;;;8.95;4.50;;;18.10;99.90;;;;;;4996775;28;20057;-80
2022/10/05 11:39:43;;;;;;;7.13;4.07;;;18.10;99.90;;;;;;4996332;28;20188;-74
2022/10/05 11:42:47;;;;;;;8.30;4.45;;;18.10;99.90;;;;;;4999008;28;20133;-75
2022/10/05 11:45:35;;;;;;;9.57;4.47;;;17.90;99.90;;;;;;4995930;28;20046;-75
2022/10/05 11:48:06;;;;;;;6.82;4.22;;;18.10;99.90;;;;;;4999060;28;20046;-77
2022/10/05 11:50:40;;;;;;;7.82;4.32;;;18.10;99.90;;;;;;4997281;28;20060;-75
2022/10/05 11:53:24;;;;;;;10.25;4.45;;;18.10;99.90;;;;;;4997425;28;20085;-74
2022/10/05 11:56:03;;;;;;;11.23;4.35;;;18.10;99.90;;;;;;5013605;28;20078;-74
2022/10/05 11:58:42;;;;;;;6.50;3.75;;;18.00;99.90;;;;;;4999622;28;20061;-81
2022/10/05 12:01:22;;;;;;;8.57;4.40;;;17.90;99.90;;;;;;4997169;28;20077;-75
2022/10/05 12:04:09;;;;;;;8.43;4.82;;;17.90;99.90;;;;;;4996383;28;20121;-75
2022/10/05 12:07:10;;;;;;;9.00;4.60;;;17.90;99.90;;;;;;4995710;28;20042;-77
2022/10/05 12:10:20;;;;;;;7.80;4.43;;;17.80;99.90;;;;;;4994454;28;20153;-74
2022/10/05 12:13:07;;;;;;;8.02;4.55;;;17.90;99.90;;;;;;4994625;28;20205;-76
2022/10/05 12:15:39;;;;;;;10.93;3.97;;;17.70;99.90;;;;;;4994770;28;20050;-80
2022/10/05 12:18:12;;;;;;;8.55;4.35;;;17.70;99.90;;;;;;4994324;28;20054;-75
2022/10/05 12:20:47;;;;;;;9.30;3.80;;;17.70;99.90;;;;;;4994531;28;20125;-75
2022/10/05 12:23:36;;;;;;;10.82;4.57;;;17.70;99.90;;;;;;5009533;28;20079;-74
2022/10/05 12:26:09;;;;;;;12.00;4.80;;;17.60;99.90;;;;;;4993886;28;20055;-78
2022/10/05 12:28:49;;;;;;;10.88;4.50;;;17.60;99.90;;;;;;4992720;28;20137;-81
2022/10/05 12:31:28;;;;;;;12.73;4.10;;;17.60;99.90;;;;;;4993750;28;20053;-73
2022/10/05 12:34:13;;;;;;;8.65;3.85;;;17.70;99.90;;;;;;4993344;28;20046;-75
2022/10/05 12:36:46;;;;;;;8.73;3.90;;;17.70;99.90;;;;;;4994114;28;20046;-75
2022/10/05 12:39:18;;;;;;;8.77;3.65;;;17.70;99.90;;;;;;4992320;28;20046;-76
2022/10/05 12:41:59;;;;;;;7.78;3.60;;;17.70;99.90;;;;;;4994200;28;20046;-78
2022/10/05 12:44:53;;;;;;;14.32;3.95;;;17.70;99.90;;;;;;4994030;28;20042;-75
2022/10/05 12:47:57;;;;;;;6.50;2.97;;;17.80;99.90;;;;;;4992098;28;20471;-75
2022/10/05 12:50:42;;;;;;;7.70;3.38;;;17.90;99.90;;;;;;5007961;28;20064;-72
2022/10/05 12:53:15;;;;;;;9.00;3.28;;;17.80;99.90;;;;;;4992917;28;20050;-74
2022/10/05 12:56:00;;;;;;;7.32;3.40;;;17.90;99.90;;;;;;4993232;28;20462;-78
2022/10/05 12:59:00;;;;;;;6.85;3.30;;;18.00;99.90;;;;;;4993540;28;20162;-72
2022/10/05 13:01:47;;;;;;;8.10;3.80;;;18.00;99.90;;;;;;4993595;28;20046;-76
2022/10/05 13:04:34;;;;;;;7.07;3.70;;;18.10;99.90;;;;;;4994457;28;20050;-75
2022/10/05 13:07:38;;;;;;;8.48;3.45;;;18.10;99.90;;;;;;4999776;28;20145;-74
2022/10/05 13:10:23;;;;;;;10.60;3.38;;;18.10;99.90;;;;;;4998630;28;20054;-74
2022/10/05 13:13:16;;;;;;;9.32;3.78;;;18.10;99.90;;;;;;5000756;28;20395;-76
2022/10/05 13:16:03;;;;;;;6.00;3.13;;;18.10;99.90;;;;;;4996935;28;20077;-76
2022/10/05 13:18:48;;;;;;;7.22;3.10;;;18.20;99.90;;;;;;4998914;28;20046;-74
2022/10/05 13:21:42;;;;;;;7.15;2.90;;;18.30;99.90;;;;;;4997043;28;20054;-76
2022/10/05 13:24:12;;;;;;;6.47;2.78;;;18.40;99.90;;;;;;4998028;28;20367;-77
2022/10/05 13:26:42;;;;;;;5.50;3.00;;;18.50;99.90;;;;;;5014036;28;20050;-78
2022/10/05 13:29:14;;;;;;;8.40;3.00;;;18.60;99.90;;;;;;5013006;28;20101;-79
2022/10/05 13:31:56;;;;;;;6.63;2.67;;;18.70;99.90;;;;;;4999253;28;20042;-78
2022/10/05 13:34:35;;;;;;;6.90;3.00;;;18.70;99.90;;;;;;5000122;28;20065;-74
2022/10/05 13:37:30;;;;;;;7.32;2.70;;;18.80;99.90;;;;;;4999261;28;20473;-75
2022/10/05 13:40:27;;;;;;;8.02;3.00;;;18.90;99.90;;;;;;4998963;28;20121;-75
2022/10/05 13:43:00;;;;;;;7.85;2.70;;;19.00;99.90;;;;;;4999745;28;20039;-77
2022/10/05 13:45:34;;;;;;;8.68;3.05;;;19.10;99.90;;;;;;5013662;28;20495;-76
2022/10/05 13:48:34;;;;;;;7.03;3.22;;;19.00;99.90;;;;;;4998617;28;20046;-73
2022/10/05 13:51:11;;;;;;;7.35;2.97;;;19.10;99.90;;;;;;5012315;28;20126;-75
2022/10/05 13:54:03;;;;;;;7.95;3.22;;;19.10;99.90;;;;;;4996420;28;20053;-78
2022/10/05 13:57:06;;;;;;;10.10;3.33;;;19.10;99.90;;;;;;4994477;28;20518;-75
2022/10/05 13:59:37;;;;;;;10.88;3.08;;;19.00;99.90;;;;;;4989013;28;20136;-75
2022/10/05 14:02:18;;;;;;;7.65;3.22;;;19.10;99.90;;;;;;4995753;28;20049;-75
2022/10/05 14:04:50;;;;;;;8.02;3.30;;;18.90;99.90;;;;;;5011014;28;20053;-78
2022/10/05 14:07:46;;;;;;;10.65;3.45;;;18.90;99.90;;;;;;4994308;28;20093;-75